createdAt,value
2023-05-14T00:01:04.353Z,15.23
2023-05-14T00:06:13.483Z,14.43
2023-05-14T00:11:21.990Z,15.59
2023-05-14T00:16:31.605Z,14.96
2023-05-14T00:21:40.059Z,17.38
2023-05-14T00:26:49.092Z,16.82
2023-05-14T00:31:58.078Z,17.51
2023-05-14T00:37:07.414Z,16.39
2023-05-14T00:42:16.295Z,15.92
2023-05-14T00:47:25.683Z,16.58
2023-05-14T00:52:34.718Z,15.31
2023-05-14T00:57:44.063Z,16.94
2023-05-14T01:02:52.944Z,16.44
2023-05-14T01:08:04.794Z,15.79
2023-05-14T01:13:03.658Z,14.87
2023-05-14T01:18:12.428Z,19.21
2023-05-14T01:23:20.896Z,15.92
2023-05-14T01:28:29.955Z,14.10
2023-05-14T01:33:38.535Z,14.08
2023-05-14T01:38:47.718Z,13.85
2023-05-14T01:43:56.103Z,14.15
2023-05-14T01:49:05.122Z,14.21
2023-05-14T01:54:13.632Z,15.75
2023-05-14T01:59:22.251Z,15.50
2023-05-14T02:04:30.800Z,14.61
2023-05-14T02:09:39.877Z,14.86
2023-05-14T02:14:48.053Z,14.37
2023-05-14T02:19:56.927Z,13.99
2023-05-14T02:25:05.533Z,15.63
2023-05-14T02:30:14.498Z,17.23
2023-05-14T02:35:23.121Z,14.47
2023-05-14T02:40:31.995Z,15.20
2023-05-14T02:45:40.636Z,15.70
2023-05-14T02:50:49.950Z,14.06
2023-05-14T02:55:58.756Z,14.36
2023-05-14T03:01:07.938Z,15.65
2023-05-14T03:06:15.922Z,15.07
2023-05-14T03:11:24.939Z,14.65
2023-05-14T03:16:33.440Z,14.55
2023-05-14T03:21:42.271Z,14.84
2023-05-14T03:26:51.193Z,14.08
2023-05-14T03:31:59.921Z,14.48
2023-05-14T03:37:08.285Z,14.32
2023-05-14T03:42:17.133Z,14.60
2023-05-14T03:47:25.640Z,14.66
2023-05-14T03:52:34.285Z,13.65
2023-05-14T03:57:42.353Z,14.46
2023-05-14T04:02:51.504Z,13.63
2023-05-14T04:08:00.571Z,15.08
2023-05-14T04:13:09.687Z,15.78
2023-05-14T04:18:18.741Z,12.43
2023-05-14T04:23:28.065Z,11.05
2023-05-14T04:28:36.692Z,9.31
2023-05-14T04:33:45.593Z,8.85
2023-05-14T04:38:53.904Z,9.49
2023-05-14T04:44:03.514Z,9.91
2023-05-14T04:49:11.987Z,9.99
2023-05-14T04:54:20.612Z,10.54
2023-05-14T04:59:29.707Z,10.16
2023-05-14T05:04:38.652Z,10.12
2023-05-14T05:09:47.165Z,8.36
2023-05-14T05:14:56.746Z,7.93
2023-05-14T05:20:05.330Z,8.45
2023-05-14T05:25:13.988Z,11.75
2023-05-14T05:30:22.874Z,10.58
2023-05-14T05:35:31.502Z,12.20
2023-05-14T05:50:58.567Z,31.00
2023-05-14T05:56:07.269Z,30.30
2023-05-14T06:01:15.503Z,24.13
2023-05-14T06:06:24.456Z,19.11
2023-05-14T06:11:32.954Z,16.47
2023-05-14T06:16:42.534Z,11.25
2023-05-14T06:21:51.385Z,9.76
2023-05-14T06:27:01.043Z,8.34
2023-05-14T06:32:09.204Z,8.01
2023-05-14T06:37:22.069Z,9.58
2023-05-14T06:42:21.015Z,6.79
2023-05-14T06:47:30.051Z,15.35
2023-05-14T06:52:38.783Z,13.42
2023-05-14T06:57:47.459Z,10.19
2023-05-14T07:02:56.039Z,10.26
2023-05-14T07:08:05.159Z,7.21
2023-05-14T07:13:14.061Z,9.52
2023-05-14T07:18:22.998Z,6.90
2023-05-14T07:23:31.594Z,4.10
2023-05-14T07:28:42.848Z,3.75
2023-05-14T07:33:41.577Z,3.62
2023-05-14T07:38:54.348Z,3.78
2023-05-14T07:43:52.838Z,3.48
2023-05-14T07:49:02.252Z,3.77
2023-05-14T07:54:10.884Z,3.49
2023-05-14T07:59:20.277Z,3.58
2023-05-14T08:04:29.375Z,3.40
2023-05-14T08:09:38.355Z,3.32
2023-05-14T08:14:47.003Z,3.32
2023-05-14T08:19:55.755Z,3.28
2023-05-14T08:25:04.542Z,4.01
2023-05-14T08:30:13.349Z,3.45
2023-05-14T08:35:22.315Z,3.65
2023-05-14T08:40:31.533Z,3.34
2023-05-14T08:45:40.250Z,3.87
2023-05-14T08:50:49.314Z,3.41
2023-05-14T08:55:58.013Z,3.92
2023-05-14T09:01:07.376Z,3.54
2023-05-14T09:06:16.264Z,3.13
2023-05-14T09:11:25.662Z,3.16
2023-05-14T09:16:34.223Z,3.85
2023-05-14T09:21:43.526Z,3.35
2023-05-14T09:26:52.154Z,3.06
2023-05-14T09:32:01.094Z,3.17
2023-05-14T09:37:09.996Z,3.53
2023-05-14T09:42:18.812Z,3.81
2023-05-14T09:47:27.277Z,4.01
2023-05-14T09:52:36.390Z,4.16
2023-05-14T09:57:45.141Z,3.66
2023-05-14T10:02:53.840Z,3.23
2023-05-14T10:08:05.655Z,3.37
2023-05-14T10:13:04.523Z,3.46
2023-05-14T10:18:13.221Z,2.98
2023-05-14T10:23:22.356Z,2.74
2023-05-14T10:28:31.011Z,3.89
2023-05-14T10:33:39.996Z,3.55
2023-05-14T10:38:48.607Z,3.54
2023-05-14T10:43:57.872Z,3.18
2023-05-14T10:49:06.739Z,2.91
2023-05-14T10:54:16.351Z,3.04
2023-05-14T10:59:26.124Z,2.99
2023-05-14T11:04:35.076Z,2.99
2023-05-14T11:09:43.819Z,2.97
2023-05-14T11:14:52.701Z,2.93
2023-05-14T11:20:01.667Z,3.17
2023-05-14T11:25:10.176Z,2.92
2023-05-14T11:30:18.984Z,3.41
2023-05-14T11:35:27.894Z,3.20
2023-05-14T11:40:36.387Z,3.31
2023-05-14T11:45:46.305Z,2.89
2023-05-14T11:50:55.073Z,2.83
2023-05-14T11:56:04.193Z,2.81
2023-05-14T12:01:13.182Z,2.86
2023-05-14T12:06:22.575Z,3.14
2023-05-14T12:11:32.011Z,3.06
2023-05-14T12:16:41.478Z,3.08
2023-05-14T12:21:49.621Z,3.14
2023-05-14T12:26:58.508Z,3.47
2023-05-14T12:32:07.336Z,3.37
2023-05-14T12:37:16.433Z,3.01
2023-05-14T12:42:25.106Z,2.96
2023-05-14T12:47:33.539Z,3.31
2023-05-14T12:52:42.336Z,3.13
2023-05-14T12:57:51.334Z,2.99
2023-05-14T13:02:59.772Z,3.00
2023-05-14T13:08:08.564Z,3.16
2023-05-14T13:13:16.895Z,3.23
2023-05-14T13:18:26.323Z,3.25
2023-05-14T13:23:35.455Z,3.39
2023-05-14T13:28:44.872Z,3.36
2023-05-14T13:33:53.509Z,3.48
2023-05-14T13:39:02.129Z,3.28
2023-05-14T13:44:10.282Z,3.17
2023-05-14T13:49:19.208Z,3.53
2023-05-14T13:54:28.177Z,3.52
2023-05-14T13:59:37.166Z,3.28
2023-05-14T14:04:45.831Z,3.09
2023-05-14T14:09:54.617Z,2.84
2023-05-14T14:15:03.356Z,2.81
2023-05-14T14:20:12.318Z,3.16
2023-05-14T14:25:20.767Z,3.23
2023-05-14T14:30:29.886Z,3.43
2023-05-14T14:35:38.607Z,3.59
2023-05-14T14:40:47.653Z,8.17
2023-05-14T14:45:57.004Z,4.17
2023-05-14T14:51:06.177Z,9.42
2023-05-14T14:56:15.025Z,4.63
2023-05-14T15:01:24.074Z,3.69
2023-05-14T15:06:32.701Z,3.60
2023-05-14T15:11:41.690Z,3.33
2023-05-14T15:16:51.192Z,3.13
2023-05-14T15:21:58.683Z,3.61
2023-05-14T15:27:07.092Z,3.90
2023-05-14T15:32:16.075Z,3.76
2023-05-14T15:37:24.766Z,3.26
2023-05-14T15:42:33.933Z,3.89
2023-05-14T15:47:42.513Z,3.68
2023-05-14T15:52:51.269Z,3.43
2023-05-14T15:58:00.212Z,3.91
2023-05-14T16:03:09.259Z,3.84
2023-05-14T16:08:18.013Z,3.37
2023-05-14T16:13:28.600Z,3.37
2023-05-14T16:18:27.644Z,3.31
2023-05-14T16:23:37.212Z,3.21
2023-05-14T16:28:46.023Z,3.08
2023-05-14T16:33:55.213Z,3.11
2023-05-14T16:39:07.119Z,3.42
2023-05-14T16:44:12.618Z,3.46
2023-05-14T16:49:20.848Z,3.38
2023-05-14T16:54:29.960Z,4.25
2023-05-14T16:59:38.373Z,3.82
2023-05-14T17:04:47.933Z,3.50
2023-05-14T17:09:56.199Z,3.53
2023-05-14T17:15:05.676Z,3.48
2023-05-14T17:20:14.652Z,3.74
2023-05-14T17:25:22.057Z,3.88
2023-05-14T17:30:30.677Z,3.93
2023-05-14T17:35:39.556Z,3.64
2023-05-14T17:40:48.318Z,3.96
2023-05-14T17:45:56.856Z,3.96
2023-05-14T17:51:06.062Z,3.98
2023-05-14T17:56:15.393Z,4.21
2023-05-14T18:01:24.087Z,4.30
2023-05-14T18:06:32.816Z,4.11
2023-05-14T18:11:41.525Z,4.13
2023-05-14T18:16:50.243Z,4.17
2023-05-14T18:21:58.713Z,4.22
2023-05-14T18:27:07.794Z,4.47
2023-05-14T18:32:16.724Z,4.13
2023-05-14T18:37:25.769Z,4.33
2023-05-14T18:42:34.212Z,4.51
2023-05-14T18:47:43.050Z,4.06
2023-05-14T18:52:52.027Z,3.88
2023-05-14T18:58:01.374Z,4.41
2023-05-14T19:03:11.562Z,4.79
2023-05-14T19:08:10.357Z,4.49
2023-05-14T19:13:19.413Z,4.79
2023-05-14T19:23:37.042Z,4.43
2023-05-14T19:33:55.674Z,5.06
2023-05-14T19:59:40.904Z,7.99
2023-05-14T20:04:49.624Z,7.64
2023-05-14T20:09:58.899Z,7.34
2023-05-14T20:15:07.443Z,5.89
2023-05-14T20:20:16.540Z,5.77
2023-05-14T20:25:26.683Z,5.15
2023-05-14T20:30:33.690Z,4.80
2023-05-14T20:35:41.910Z,5.69
2023-05-14T20:40:50.574Z,5.81
2023-05-14T20:45:59.451Z,7.99
2023-05-14T20:51:07.973Z,11.22
2023-05-14T20:56:16.421Z,8.51
2023-05-14T21:01:25.713Z,8.77
2023-05-14T21:06:34.535Z,8.33
2023-05-14T21:11:43.616Z,8.14
2023-05-14T21:16:52.323Z,7.29
2023-05-14T21:22:01.146Z,7.16
2023-05-14T21:27:09.913Z,6.85
2023-05-14T21:32:19.171Z,7.37
2023-05-14T21:37:27.900Z,5.43
2023-05-14T21:42:36.870Z,5.66
2023-05-14T21:47:46.342Z,5.42
2023-05-14T21:52:55.160Z,6.65
2023-05-14T21:58:04.028Z,6.59
2023-05-14T22:03:13.393Z,5.72
2023-05-14T22:08:22.044Z,5.63
2023-05-14T22:13:30.906Z,5.23
2023-05-14T22:18:39.960Z,5.57
2023-05-14T22:23:51.871Z,5.84
2023-05-14T22:28:50.170Z,5.13
2023-05-14T22:33:59.067Z,5.11
2023-05-14T22:39:07.994Z,5.86
2023-05-14T22:44:16.886Z,6.41
2023-05-14T22:49:25.623Z,5.36
2023-05-14T22:54:34.567Z,5.69
2023-05-14T22:59:43.543Z,6.71
2023-05-14T23:04:52.550Z,6.14
2023-05-14T23:10:01.016Z,6.77
2023-05-14T23:15:10.196Z,7.08
2023-05-14T23:20:18.651Z,6.06
2023-05-14T23:25:27.491Z,5.63
2023-05-14T23:30:36.240Z,6.19
2023-05-14T23:35:45.165Z,5.18
2023-05-14T23:40:53.868Z,5.37
2023-05-14T23:46:03.174Z,5.24
2023-05-14T23:51:11.555Z,5.66
2023-05-14T23:56:20.720Z,5.44
